sensor_id;sensor_type;location;lat;lon;timestamp;temperature;humidity
16174;DHT22;14031;50.158;8.626;2023-06-04T00:02:03;17.30;98.90
16174;DHT22;14031;50.158;8.626;2023-06-04T00:04:30;17.40;99.40
16174;DHT22;14031;50.158;8.626;2023-06-04T00:06:57;17.30;99.20
16174;DHT22;14031;50.158;8.626;2023-06-04T00:09:25;17.10;99.50
16174;DHT22;14031;50.158;8.626;2023-06-04T00:11:51;17.20;99.90
16174;DHT22;14031;50.158;8.626;2023-06-04T00:14:18;17.30;99.90
16174;DHT22;14031;50.158;8.626;2023-06-04T00:16:45;17.10;99.90
16174;DHT22;14031;50.158;8.626;2023-06-04T00:19:12;17.10;99.90
16174;DHT22;14031;50.158;8.626;2023-06-04T00:21:38;17.10;99.90
16174;DHT22;14031;50.158;8.626;2023-06-04T00:24:06;17.10;99.90
16174;DHT22;14031;50.158;8.626;2023-06-04T00:26:34;17.00;99.90
16174;DHT22;14031;50.158;8.626;2023-06-04T00:29:01;17.00;99.90
16174;DHT22;14031;50.158;8.626;2023-06-04T00:31:28;16.90;99.90
16174;DHT22;14031;50.158;8.626;2023-06-04T00:33:54;16.80;99.90
16174;DHT22;14031;50.158;8.626;2023-06-04T00:36:21;16.90;99.90
16174;DHT22;14031;50.158;8.626;2023-06-04T00:38:48;16.80;99.90
16174;DHT22;14031;50.158;8.626;2023-06-04T00:41:15;16.70;99.90
16174;DHT22;14031;50.158;8.626;2023-06-04T00:43:43;16.70;99.90
16174;DHT22;14031;50.158;8.626;2023-06-04T00:46:11;16.70;99.90
16174;DHT22;14031;50.158;8.626;2023-06-04T00:48:43;16.60;99.90
16174;DHT22;14031;50.158;8.626;2023-06-04T00:51:10;16.60;99.90
16174;DHT22;14031;50.158;8.626;2023-06-04T00:53:37;16.60;99.90
16174;DHT22;14031;50.158;8.626;2023-06-04T00:56:04;16.60;99.90
16174;DHT22;14031;50.158;8.626;2023-06-04T00:58:32;16.50;99.90
16174;DHT22;14031;50.158;8.626;2023-06-04T01:01:04;16.40;99.90
16174;DHT22;14031;50.158;8.626;2023-06-04T01:03:32;16.40;99.90
16174;DHT22;14031;50.158;8.626;2023-06-04T01:06:04;16.30;99.90
16174;DHT22;14031;50.158;8.626;2023-06-04T01:08:35;16.30;99.90
16174;DHT22;14031;50.158;8.626;2023-06-04T01:11:03;16.20;99.90
16174;DHT22;14031;50.158;8.626;2023-06-04T01:13:30;16.20;99.90
16174;DHT22;14031;50.158;8.626;2023-06-04T01:15:56;16.10;99.90
16174;DHT22;14031;50.158;8.626;2023-06-04T01:18:27;16.10;99.90
16174;DHT22;14031;50.158;8.626;2023-06-04T01:20:57;16.10;99.90
16174;DHT22;14031;50.158;8.626;2023-06-04T01:23:28;16.10;99.90
16174;DHT22;14031;50.158;8.626;2023-06-04T01:25:59;16.00;99.90
16174;DHT22;14031;50.158;8.626;2023-06-04T01:28:28;15.90;99.90
16174;DHT22;14031;50.158;8.626;2023-06-04T01:30:56;15.90;99.90
16174;DHT22;14031;50.158;8.626;2023-06-04T01:33:26;15.90;99.90
16174;DHT22;14031;50.158;8.626;2023-06-04T01:35:53;15.90;99.90
16174;DHT22;14031;50.158;8.626;2023-06-04T01:38:20;15.80;99.90
16174;DHT22;14031;50.158;8.626;2023-06-04T01:40:46;15.80;99.90
16174;DHT22;14031;50.158;8.626;2023-06-04T01:43:13;15.80;99.90
16174;DHT22;14031;50.158;8.626;2023-06-04T01:45:40;15.70;99.90
16174;DHT22;14031;50.158;8.626;2023-06-04T01:48:07;15.70;99.90
16174;DHT22;14031;50.158;8.626;2023-06-04T01:50:35;15.60;99.90
16174;DHT22;14031;50.158;8.626;2023-06-04T01:53:02;15.60;99.90
16174;DHT22;14031;50.158;8.626;2023-06-04T01:55:28;15.60;99.90
16174;DHT22;14031;50.158;8.626;2023-06-04T01:57:59;15.60;99.90
16174;DHT22;14031;50.158;8.626;2023-06-04T02:00:26;15.50;99.90
16174;DHT22;14031;50.158;8.626;2023-06-04T02:02:52;15.50;99.90
16174;DHT22;14031;50.158;8.626;2023-06-04T02:05:21;15.40;99.90
16174;DHT22;14031;50.158;8.626;2023-06-04T02:07:49;15.40;99.90
16174;DHT22;14031;50.158;8.626;2023-06-04T02:10:19;15.40;99.90
16174;DHT22;14031;50.158;8.626;2023-06-04T02:12:56;15.40;99.90
16174;DHT22;14031;50.158;8.626;2023-06-04T02:15:24;15.40;99.90
16174;DHT22;14031;50.158;8.626;2023-06-04T02:17:53;15.40;99.90
16174;DHT22;14031;50.158;8.626;2023-06-04T02:20:20;15.30;99.90
16174;DHT22;14031;50.158;8.626;2023-06-04T02:22:49;15.20;99.90
16174;DHT22;14031;50.158;8.626;2023-06-04T02:25:15;15.20;99.90
16174;DHT22;14031;50.158;8.626;2023-06-04T02:27:42;15.20;99.90
16174;DHT22;14031;50.158;8.626;2023-06-04T02:30:09;15.20;99.90
16174;DHT22;14031;50.158;8.626;2023-06-04T02:32:36;15.20;99.90
16174;DHT22;14031;50.158;8.626;2023-06-04T02:35:05;15.10;99.90
16174;DHT22;14031;50.158;8.626;2023-06-04T02:37:32;15.10;99.90
16174;DHT22;14031;50.158;8.626;2023-06-04T02:40:00;15.10;99.90
16174;DHT22;14031;50.158;8.626;2023-06-04T02:42:27;15.10;99.90
16174;DHT22;14031;50.158;8.626;2023-06-04T02:44:54;15.00;99.90
16174;DHT22;14031;50.158;8.626;2023-06-04T02:47:21;15.00;99.90
16174;DHT22;14031;50.158;8.626;2023-06-04T02:49:47;14.90;99.90
16174;DHT22;14031;50.158;8.626;2023-06-04T02:52:14;14.90;99.90
16174;DHT22;14031;50.158;8.626;2023-06-04T02:54:41;14.90;99.90
16174;DHT22;14031;50.158;8.626;2023-06-04T02:57:09;14.90;99.90
16174;DHT22;14031;50.158;8.626;2023-06-04T02:59:36;14.80;99.90
16174;DHT22;14031;50.158;8.626;2023-06-04T03:02:04;14.70;99.90
16174;DHT22;14031;50.158;8.626;2023-06-04T03:04:31;14.70;99.90
16174;DHT22;14031;50.158;8.626;2023-06-04T03:07:00;14.70;99.90
16174;DHT22;14031;50.158;8.626;2023-06-04T03:09:27;14.60;99.90
16174;DHT22;14031;50.158;8.626;2023-06-04T03:11:56;14.70;99.90
16174;DHT22;14031;50.158;8.626;2023-06-04T03:14:24;14.60;99.90
16174;DHT22;14031;50.158;8.626;2023-06-04T03:16:58;14.60;99.90
16174;DHT22;14031;50.158;8.626;2023-06-04T03:19:33;14.50;99.90
16174;DHT22;14031;50.158;8.626;2023-06-04T03:22:00;14.50;99.90
16174;DHT22;14031;50.158;8.626;2023-06-04T03:24:32;14.50;99.90
16174;DHT22;14031;50.158;8.626;2023-06-04T03:27:00;14.50;99.90
16174;DHT22;14031;50.158;8.626;2023-06-04T03:29:28;14.50;99.90
16174;DHT22;14031;50.158;8.626;2023-06-04T03:31:56;14.50;99.90
16174;DHT22;14031;50.158;8.626;2023-06-04T03:34:22;14.40;99.90
16174;DHT22;14031;50.158;8.626;2023-06-04T03:36:50;14.40;99.90
16174;DHT22;14031;50.158;8.626;2023-06-04T03:39:17;14.50;99.90
16174;DHT22;14031;50.158;8.626;2023-06-04T03:41:44;14.50;99.90
16174;DHT22;14031;50.158;8.626;2023-06-04T03:44:12;14.50;99.90
16174;DHT22;14031;50.158;8.626;2023-06-04T03:46:40;14.40;99.90
16174;DHT22;14031;50.158;8.626;2023-06-04T03:49:08;14.40;99.90
16174;DHT22;14031;50.158;8.626;2023-06-04T03:51:35;14.40;99.90
16174;DHT22;14031;50.158;8.626;2023-06-04T03:54:02;14.50;99.90
16174;DHT22;14031;50.158;8.626;2023-06-04T03:56:29;14.40;99.90
16174;DHT22;14031;50.158;8.626;2023-06-04T03:58:57;14.50;99.90
16174;DHT22;14031;50.158;8.626;2023-06-04T04:01:25;14.50;99.90
16174;DHT22;14031;50.158;8.626;2023-06-04T04:03:53;14.40;99.90
16174;DHT22;14031;50.158;8.626;2023-06-04T04:06:21;14.50;99.90
16174;DHT22;14031;50.158;8.626;2023-06-04T04:08:48;14.40;99.90
16174;DHT22;14031;50.158;8.626;2023-06-04T04:11:16;14.40;99.90
16174;DHT22;14031;50.158;8.626;2023-06-04T04:13:45;14.50;99.90
16174;DHT22;14031;50.158;8.626;2023-06-04T04:16:12;14.50;99.90
16174;DHT22;14031;50.158;8.626;2023-06-04T04:18:41;14.50;99.90
16174;DHT22;14031;50.158;8.626;2023-06-04T04:21:09;14.50;99.90
16174;DHT22;14031;50.158;8.626;2023-06-04T04:23:38;14.50;99.90
16174;DHT22;14031;50.158;8.626;2023-06-04T04:26:05;14.50;99.90
16174;DHT22;14031;50.158;8.626;2023-06-04T04:28:32;14.60;99.90
16174;DHT22;14031;50.158;8.626;2023-06-04T04:31:00;14.60;99.90
16174;DHT22;14031;50.158;8.626;2023-06-04T04:33:28;14.60;99.90
16174;DHT22;14031;50.158;8.626;2023-06-04T04:35:57;14.60;99.90
16174;DHT22;14031;50.158;8.626;2023-06-04T04:38:26;14.60;99.90
16174;DHT22;14031;50.158;8.626;2023-06-04T04:40:54;14.60;99.90
16174;DHT22;14031;50.158;8.626;2023-06-04T04:43:28;14.60;99.90
16174;DHT22;14031;50.158;8.626;2023-06-04T04:45:56;14.60;99.90
16174;DHT22;14031;50.158;8.626;2023-06-04T04:48:36;14.60;99.90
16174;DHT22;14031;50.158;8.626;2023-06-04T04:51:04;14.60;99.90
16174;DHT22;14031;50.158;8.626;2023-06-04T04:53:32;14.70;99.90
16174;DHT22;14031;50.158;8.626;2023-06-04T04:55:58;14.70;99.90
16174;DHT22;14031;50.158;8.626;2023-06-04T04:58:25;14.70;99.90
16174;DHT22;14031;50.158;8.626;2023-06-04T05:00:52;14.70;99.90
16174;DHT22;14031;50.158;8.626;2023-06-04T05:03:20;14.80;99.90
16174;DHT22;14031;50.158;8.626;2023-06-04T05:05:47;14.80;99.90
16174;DHT22;14031;50.158;8.626;2023-06-04T05:08:14;14.80;99.90
16174;DHT22;14031;50.158;8.626;2023-06-04T05:10:42;14.80;99.90
16174;DHT22;14031;50.158;8.626;2023-06-04T05:13:09;14.90;99.90
16174;DHT22;14031;50.158;8.626;2023-06-04T05:15:36;14.90;99.90
16174;DHT22;14031;50.158;8.626;2023-06-04T05:18:05;15.00;99.90
16174;DHT22;14031;50.158;8.626;2023-06-04T05:20:34;15.00;99.90
16174;DHT22;14031;50.158;8.626;2023-06-04T05:23:03;15.00;99.90
16174;DHT22;14031;50.158;8.626;2023-06-04T05:25:30;15.20;99.90
16174;DHT22;14031;50.158;8.626;2023-06-04T05:27:58;15.20;99.90
16174;DHT22;14031;50.158;8.626;2023-06-04T05:30:25;15.20;99.90
16174;DHT22;14031;50.158;8.626;2023-06-04T05:32:52;15.30;99.90
16174;DHT22;14031;50.158;8.626;2023-06-04T05:35:19;15.40;99.90
16174;DHT22;14031;50.158;8.626;2023-06-04T05:37:46;15.40;99.90
16174;DHT22;14031;50.158;8.626;2023-06-04T05:40:19;15.50;99.90
16174;DHT22;14031;50.158;8.626;2023-06-04T05:42:46;15.60;99.90
16174;DHT22;14031;50.158;8.626;2023-06-04T05:45:15;15.60;99.90
16174;DHT22;14031;50.158;8.626;2023-06-04T05:47:42;15.70;99.90
16174;DHT22;14031;50.158;8.626;2023-06-04T05:50:09;15.80;99.90
16174;DHT22;14031;50.158;8.626;2023-06-04T05:52:36;15.90;99.90
16174;DHT22;14031;50.158;8.626;2023-06-04T05:55:04;16.00;99.90
16174;DHT22;14031;50.158;8.626;2023-06-04T05:57:32;16.00;99.90
16174;DHT22;14031;50.158;8.626;2023-06-04T05:59:59;16.10;99.90
16174;DHT22;14031;50.158;8.626;2023-06-04T06:02:27;16.10;99.90
16174;DHT22;14031;50.158;8.626;2023-06-04T06:04:54;16.30;99.90
16174;DHT22;14031;50.158;8.626;2023-06-04T06:07:21;16.40;99.90
16174;DHT22;14031;50.158;8.626;2023-06-04T06:09:48;16.30;99.90
16174;DHT22;14031;50.158;8.626;2023-06-04T06:12:15;16.40;99.90
16174;DHT22;14031;50.158;8.626;2023-06-04T06:14:41;16.40;99.90
16174;DHT22;14031;50.158;8.626;2023-06-04T06:17:08;16.40;99.90
16174;DHT22;14031;50.158;8.626;2023-06-04T06:19:37;16.60;99.90
16174;DHT22;14031;50.158;8.626;2023-06-04T06:22:04;16.50;99.90
16174;DHT22;14031;50.158;8.626;2023-06-04T06:24:35;16.60;99.90
16174;DHT22;14031;50.158;8.626;2023-06-04T06:27:03;16.70;99.90
16174;DHT22;14031;50.158;8.626;2023-06-04T06:29:30;16.80;99.90
16174;DHT22;14031;50.158;8.626;2023-06-04T06:31:57;16.90;99.90
16174;DHT22;14031;50.158;8.626;2023-06-04T06:34:24;17.00;99.90
16174;DHT22;14031;50.158;8.626;2023-06-04T06:36:53;17.10;99.90
16174;DHT22;14031;50.158;8.626;2023-06-04T06:39:20;17.20;99.90
16174;DHT22;14031;50.158;8.626;2023-06-04T06:41:47;17.30;99.90
16174;DHT22;14031;50.158;8.626;2023-06-04T06:44:13;17.30;99.90
16174;DHT22;14031;50.158;8.626;2023-06-04T06:46:40;17.40;99.90
16174;DHT22;14031;50.158;8.626;2023-06-04T06:49:07;17.40;99.90
16174;DHT22;14031;50.158;8.626;2023-06-04T06:51:34;17.50;99.90
16174;DHT22;14031;50.158;8.626;2023-06-04T06:54:02;17.60;99.90
16174;DHT22;14031;50.158;8.626;2023-06-04T06:56:29;17.60;99.90
16174;DHT22;14031;50.158;8.626;2023-06-04T06:58:56;17.70;99.90
16174;DHT22;14031;50.158;8.626;2023-06-04T07:01:23;17.80;99.90
16174;DHT22;14031;50.158;8.626;2023-06-04T07:03:50;17.90;99.90
16174;DHT22;14031;50.158;8.626;2023-06-04T07:06:17;18.10;99.90
16174;DHT22;14031;50.158;8.626;2023-06-04T07:08:43;18.10;99.90
16174;DHT22;14031;50.158;8.626;2023-06-04T07:11:11;18.30;99.90
16174;DHT22;14031;50.158;8.626;2023-06-04T07:13:38;18.40;99.90
16174;DHT22;14031;50.158;8.626;2023-06-04T07:16:05;18.40;99.90
16174;DHT22;14031;50.158;8.626;2023-06-04T07:18:32;18.50;99.90
16174;DHT22;14031;50.158;8.626;2023-06-04T07:20:59;18.60;99.90
16174;DHT22;14031;50.158;8.626;2023-06-04T07:23:26;18.70;99.90
16174;DHT22;14031;50.158;8.626;2023-06-04T07:25:53;18.90;99.90
16174;DHT22;14031;50.158;8.626;2023-06-04T07:28:21;18.90;99.90
16174;DHT22;14031;50.158;8.626;2023-06-04T07:30:48;19.00;99.90
16174;DHT22;14031;50.158;8.626;2023-06-04T07:33:14;19.10;99.90
16174;DHT22;14031;50.158;8.626;2023-06-04T07:35:41;19.20;99.90
16174;DHT22;14031;50.158;8.626;2023-06-04T07:38:08;19.30;99.90
16174;DHT22;14031;50.158;8.626;2023-06-04T07:40:35;19.40;99.90
16174;DHT22;14031;50.158;8.626;2023-06-04T07:43:02;19.40;99.90
16174;DHT22;14031;50.158;8.626;2023-06-04T07:45:30;19.50;99.90
16174;DHT22;14031;50.158;8.626;2023-06-04T07:47:57;19.60;99.90
16174;DHT22;14031;50.158;8.626;2023-06-04T07:50:24;19.70;99.90
16174;DHT22;14031;50.158;8.626;2023-06-04T07:52:50;19.60;99.90
16174;DHT22;14031;50.158;8.626;2023-06-04T07:55:17;19.60;99.90
16174;DHT22;14031;50.158;8.626;2023-06-04T07:57:44;19.60;99.90
16174;DHT22;14031;50.158;8.626;2023-06-04T08:00:12;19.60;99.90
16174;DHT22;14031;50.158;8.626;2023-06-04T08:02:42;19.70;99.90
16174;DHT22;14031;50.158;8.626;2023-06-04T08:05:08;19.80;99.90
16174;DHT22;14031;50.158;8.626;2023-06-04T08:07:35;19.80;99.90
16174;DHT22;14031;50.158;8.626;2023-06-04T08:10:02;19.90;99.90
16174;DHT22;14031;50.158;8.626;2023-06-04T08:12:29;19.90;99.90
16174;DHT22;14031;50.158;8.626;2023-06-04T08:14:56;20.00;99.90
16174;DHT22;14031;50.158;8.626;2023-06-04T08:17:23;20.10;99.90
16174;DHT22;14031;50.158;8.626;2023-06-04T08:19:51;20.30;99.90
16174;DHT22;14031;50.158;8.626;2023-06-04T08:22:18;20.30;99.90
16174;DHT22;14031;50.158;8.626;2023-06-04T08:24:45;20.40;99.90
16174;DHT22;14031;50.158;8.626;2023-06-04T08:27:12;20.50;99.90
16174;DHT22;14031;50.158;8.626;2023-06-04T08:29:39;20.50;99.90
16174;DHT22;14031;50.158;8.626;2023-06-04T08:32:06;20.60;99.90
16174;DHT22;14031;50.158;8.626;2023-06-04T08:34:34;20.70;99.90
16174;DHT22;14031;50.158;8.626;2023-06-04T08:37:02;20.80;99.90
16174;DHT22;14031;50.158;8.626;2023-06-04T08:39:30;20.80;99.90
16174;DHT22;14031;50.158;8.626;2023-06-04T08:42:00;20.90;99.90
16174;DHT22;14031;50.158;8.626;2023-06-04T08:44:27;20.90;99.90
16174;DHT22;14031;50.158;8.626;2023-06-04T08:47:01;21.00;99.90
16174;DHT22;14031;50.158;8.626;2023-06-04T08:49:30;21.10;99.90
16174;DHT22;14031;50.158;8.626;2023-06-04T08:52:01;21.10;99.90
16174;DHT22;14031;50.158;8.626;2023-06-04T08:54:28;21.10;99.90
16174;DHT22;14031;50.158;8.626;2023-06-04T08:56:56;21.10;99.90
16174;DHT22;14031;50.158;8.626;2023-06-04T08:59:24;21.20;99.90
16174;DHT22;14031;50.158;8.626;2023-06-04T09:01:52;21.30;99.90
16174;DHT22;14031;50.158;8.626;2023-06-04T09:04:20;21.40;99.90
16174;DHT22;14031;50.158;8.626;2023-06-04T09:06:47;21.60;99.90
16174;DHT22;14031;50.158;8.626;2023-06-04T09:09:17;21.60;99.90
16174;DHT22;14031;50.158;8.626;2023-06-04T09:11:49;21.80;99.90
16174;DHT22;14031;50.158;8.626;2023-06-04T09:14:17;22.00;99.90
16174;DHT22;14031;50.158;8.626;2023-06-04T09:16:45;22.10;99.90
16174;DHT22;14031;50.158;8.626;2023-06-04T09:19:12;22.10;99.90
16174;DHT22;14031;50.158;8.626;2023-06-04T09:21:49;22.20;99.90
16174;DHT22;14031;50.158;8.626;2023-06-04T09:24:18;22.30;99.90
16174;DHT22;14031;50.158;8.626;2023-06-04T09:26:46;22.30;99.90
16174;DHT22;14031;50.158;8.626;2023-06-04T09:29:13;22.30;99.90
16174;DHT22;14031;50.158;8.626;2023-06-04T09:31:40;22.40;99.80
16174;DHT22;14031;50.158;8.626;2023-06-04T09:34:07;22.40;99.90
16174;DHT22;14031;50.158;8.626;2023-06-04T09:36:34;22.30;99.00
16174;DHT22;14031;50.158;8.626;2023-06-04T09:39:02;22.30;99.00
16174;DHT22;14031;50.158;8.626;2023-06-04T09:41:33;22.40;99.90
16174;DHT22;14031;50.158;8.626;2023-06-04T09:44:00;22.50;99.90
16174;DHT22;14031;50.158;8.626;2023-06-04T09:46:28;22.60;99.90
16174;DHT22;14031;50.158;8.626;2023-06-04T09:49:00;22.80;99.90
16174;DHT22;14031;50.158;8.626;2023-06-04T09:51:28;22.90;99.90
16174;DHT22;14031;50.158;8.626;2023-06-04T09:53:57;23.00;98.00
16174;DHT22;14031;50.158;8.626;2023-06-04T09:56:24;23.10;98.80
16174;DHT22;14031;50.158;8.626;2023-06-04T09:58:56;23.10;98.00
16174;DHT22;14031;50.158;8.626;2023-06-04T10:01:26;23.20;97.50
16174;DHT22;14031;50.158;8.626;2023-06-04T10:03:54;23.30;97.10
16174;DHT22;14031;50.158;8.626;2023-06-04T10:06:23;23.40;96.30
16174;DHT22;14031;50.158;8.626;2023-06-04T10:08:50;23.40;96.60
16174;DHT22;14031;50.158;8.626;2023-06-04T10:11:22;23.50;97.20
16174;DHT22;14031;50.158;8.626;2023-06-04T10:13:55;23.70;96.90
16174;DHT22;14031;50.158;8.626;2023-06-04T10:16:24;23.80;93.80
16174;DHT22;14031;50.158;8.626;2023-06-04T10:18:52;23.80;92.50
16174;DHT22;14031;50.158;8.626;2023-06-04T10:21:21;23.90;92.20
16174;DHT22;14031;50.158;8.626;2023-06-04T10:23:49;23.90;91.40
16174;DHT22;14031;50.158;8.626;2023-06-04T10:26:16;24.10;93.60
16174;DHT22;14031;50.158;8.626;2023-06-04T10:28:44;24.20;91.40
16174;DHT22;14031;50.158;8.626;2023-06-04T10:31:12;24.30;87.30
16174;DHT22;14031;50.158;8.626;2023-06-04T10:33:39;24.30;84.60
16174;DHT22;14031;50.158;8.626;2023-06-04T10:36:16;24.30;87.50
16174;DHT22;14031;50.158;8.626;2023-06-04T10:38:46;24.40;87.90
16174;DHT22;14031;50.158;8.626;2023-06-04T10:41:16;24.50;90.00
16174;DHT22;14031;50.158;8.626;2023-06-04T10:43:45;24.60;90.10
16174;DHT22;14031;50.158;8.626;2023-06-04T10:46:14;24.80;90.60
16174;DHT22;14031;50.158;8.626;2023-06-04T10:48:47;25.00;90.00
16174;DHT22;14031;50.158;8.626;2023-06-04T10:51:15;25.20;88.70
16174;DHT22;14031;50.158;8.626;2023-06-04T10:53:42;25.30;87.00
16174;DHT22;14031;50.158;8.626;2023-06-04T10:56:08;25.50;84.60
16174;DHT22;14031;50.158;8.626;2023-06-04T10:58:35;25.60;83.60
16174;DHT22;14031;50.158;8.626;2023-06-04T11:01:02;25.70;85.80
16174;DHT22;14031;50.158;8.626;2023-06-04T11:03:37;25.70;83.20
16174;DHT22;14031;50.158;8.626;2023-06-04T11:06:14;25.80;84.80
16174;DHT22;14031;50.158;8.626;2023-06-04T11:08:42;25.90;81.20
16174;DHT22;14031;50.158;8.626;2023-06-04T11:11:12;26.00;79.60
16174;DHT22;14031;50.158;8.626;2023-06-04T11:13:39;26.10;84.70
16174;DHT22;14031;50.158;8.626;2023-06-04T11:16:14;26.10;81.80
16174;DHT22;14031;50.158;8.626;2023-06-04T11:18:43;26.20;79.20
16174;DHT22;14031;50.158;8.626;2023-06-04T11:21:11;26.30;80.50
16174;DHT22;14031;50.158;8.626;2023-06-04T11:23:40;26.40;77.60
16174;DHT22;14031;50.158;8.626;2023-06-04T11:26:07;26.40;77.40
16174;DHT22;14031;50.158;8.626;2023-06-04T11:28:33;26.40;76.10
16174;DHT22;14031;50.158;8.626;2023-06-04T11:31:02;26.50;80.60
16174;DHT22;14031;50.158;8.626;2023-06-04T11:33:40;26.50;79.70
16174;DHT22;14031;50.158;8.626;2023-06-04T11:36:09;26.60;80.10
16174;DHT22;14031;50.158;8.626;2023-06-04T11:38:36;26.80;76.70
16174;DHT22;14031;50.158;8.626;2023-06-04T11:41:03;26.90;75.90
16174;DHT22;14031;50.158;8.626;2023-06-04T11:43:32;27.10;77.30
16174;DHT22;14031;50.158;8.626;2023-06-04T11:46:05;27.40;77.30
16174;DHT22;14031;50.158;8.626;2023-06-04T11:48:32;27.30;73.30
16174;DHT22;14031;50.158;8.626;2023-06-04T11:51:05;27.20;70.20
16174;DHT22;14031;50.158;8.626;2023-06-04T11:53:40;27.20;74.30
16174;DHT22;14031;50.158;8.626;2023-06-04T11:56:07;27.20;72.00
16174;DHT22;14031;50.158;8.626;2023-06-04T11:58:34;27.30;74.80
16174;DHT22;14031;50.158;8.626;2023-06-04T12:01:01;27.30;68.70
16174;DHT22;14031;50.158;8.626;2023-06-04T12:03:35;27.30;68.50
16174;DHT22;14031;50.158;8.626;2023-06-04T12:06:11;27.30;68.00
16174;DHT22;14031;50.158;8.626;2023-06-04T12:08:46;27.20;69.60
16174;DHT22;14031;50.158;8.626;2023-06-04T12:11:27;27.20;69.00
16174;DHT22;14031;50.158;8.626;2023-06-04T12:13:57;27.20;69.40
16174;DHT22;14031;50.158;8.626;2023-06-04T12:16:25;27.30;67.10
16174;DHT22;14031;50.158;8.626;2023-06-04T12:18:52;27.30;69.10
16174;DHT22;14031;50.158;8.626;2023-06-04T12:21:30;27.50;68.40
16174;DHT22;14031;50.158;8.626;2023-06-04T12:24:07;27.60;66.00
16174;DHT22;14031;50.158;8.626;2023-06-04T12:26:34;27.60;68.60
16174;DHT22;14031;50.158;8.626;2023-06-04T12:29:08;27.60;66.30
16174;DHT22;14031;50.158;8.626;2023-06-04T12:31:37;27.70;69.60
16174;DHT22;14031;50.158;8.626;2023-06-04T12:34:04;27.90;68.40
16174;DHT22;14031;50.158;8.626;2023-06-04T12:36:31;28.00;66.50
16174;DHT22;14031;50.158;8.626;2023-06-04T12:39:01;28.20;66.60
16174;DHT22;14031;50.158;8.626;2023-06-04T12:41:29;28.30;65.30
16174;DHT22;14031;50.158;8.626;2023-06-04T12:43:56;28.40;64.10
16174;DHT22;14031;50.158;8.626;2023-06-04T12:46:23;28.60;65.80
16174;DHT22;14031;50.158;8.626;2023-06-04T12:48:51;28.80;68.20
16174;DHT22;14031;50.158;8.626;2023-06-04T12:51:18;28.90;67.00
16174;DHT22;14031;50.158;8.626;2023-06-04T12:53:46;28.90;63.20
16174;DHT22;14031;50.158;8.626;2023-06-04T12:56:13;29.00;63.40
16174;DHT22;14031;50.158;8.626;2023-06-04T12:58:41;29.10;64.50
16174;DHT22;14031;50.158;8.626;2023-06-04T13:01:08;29.30;64.60
16174;DHT22;14031;50.158;8.626;2023-06-04T13:03:37;29.40;60.30
16174;DHT22;14031;50.158;8.626;2023-06-04T13:06:04;29.30;61.20
16174;DHT22;14031;50.158;8.626;2023-06-04T13:08:31;29.30;64.10
16174;DHT22;14031;50.158;8.626;2023-06-04T13:10:58;29.40;61.50
16174;DHT22;14031;50.158;8.626;2023-06-04T13:13:25;29.30;60.50
16174;DHT22;14031;50.158;8.626;2023-06-04T13:15:53;29.50;61.10
16174;DHT22;14031;50.158;8.626;2023-06-04T13:18:20;29.60;61.10
16174;DHT22;14031;50.158;8.626;2023-06-04T13:20:47;29.80;61.70
16174;DHT22;14031;50.158;8.626;2023-06-04T13:23:15;30.00;62.40
16174;DHT22;14031;50.158;8.626;2023-06-04T13:25:42;30.30;63.10
16174;DHT22;14031;50.158;8.626;2023-06-04T13:28:09;30.40;58.50
16174;DHT22;14031;50.158;8.626;2023-06-04T13:30:37;30.40;58.70
16174;DHT22;14031;50.158;8.626;2023-06-04T13:33:05;30.50;60.40
16174;DHT22;14031;50.158;8.626;2023-06-04T13:35:32;30.60;59.40
16174;DHT22;14031;50.158;8.626;2023-06-04T13:37:59;30.80;59.00
16174;DHT22;14031;50.158;8.626;2023-06-04T13:40:26;30.90;56.70
16174;DHT22;14031;50.158;8.626;2023-06-04T13:42:53;31.00;58.80
16174;DHT22;14031;50.158;8.626;2023-06-04T13:45:20;31.20;60.00
16174;DHT22;14031;50.158;8.626;2023-06-04T13:47:47;31.30;57.80
16174;DHT22;14031;50.158;8.626;2023-06-04T13:50:16;31.50;58.50
16174;DHT22;14031;50.158;8.626;2023-06-04T13:52:42;31.70;58.40
16174;DHT22;14031;50.158;8.626;2023-06-04T13:55:09;31.90;58.80
16174;DHT22;14031;50.158;8.626;2023-06-04T13:57:36;32.30;58.10
16174;DHT22;14031;50.158;8.626;2023-06-04T14:00:04;32.40;55.50
16174;DHT22;14031;50.158;8.626;2023-06-04T14:02:32;32.60;55.80
16174;DHT22;14031;50.158;8.626;2023-06-04T14:04:59;32.70;54.50
16174;DHT22;14031;50.158;8.626;2023-06-04T14:07:27;32.80;53.50
16174;DHT22;14031;50.158;8.626;2023-06-04T14:09:54;32.80;53.80
16174;DHT22;14031;50.158;8.626;2023-06-04T14:12:21;33.10;56.20
16174;DHT22;14031;50.158;8.626;2023-06-04T14:14:48;33.30;55.20
16174;DHT22;14031;50.158;8.626;2023-06-04T14:17:15;33.70;53.80
16174;DHT22;14031;50.158;8.626;2023-06-04T14:19:42;33.70;51.10
16174;DHT22;14031;50.158;8.626;2023-06-04T14:22:10;33.70;51.60
16174;DHT22;14031;50.158;8.626;2023-06-04T14:24:39;33.80;51.40
16174;DHT22;14031;50.158;8.626;2023-06-04T14:27:06;33.60;50.10
16174;DHT22;14031;50.158;8.626;2023-06-04T14:29:34;33.50;50.80
16174;DHT22;14031;50.158;8.626;2023-06-04T14:32:01;33.50;51.70
16174;DHT22;14031;50.158;8.626;2023-06-04T14:34:27;33.70;50.60
16174;DHT22;14031;50.158;8.626;2023-06-04T14:36:54;34.00;53.10
16174;DHT22;14031;50.158;8.626;2023-06-04T14:39:23;34.30;50.30
16174;DHT22;14031;50.158;8.626;2023-06-04T14:41:51;34.40;50.60
16174;DHT22;14031;50.158;8.626;2023-06-04T14:44:18;34.40;50.40
16174;DHT22;14031;50.158;8.626;2023-06-04T14:46:45;34.40;48.60
16174;DHT22;14031;50.158;8.626;2023-06-04T14:49:13;34.30;49.20
16174;DHT22;14031;50.158;8.626;2023-06-04T14:51:39;34.20;49.90
16174;DHT22;14031;50.158;8.626;2023-06-04T14:54:06;34.30;50.10
16174;DHT22;14031;50.158;8.626;2023-06-04T14:56:33;34.30;47.80
16174;DHT22;14031;50.158;8.626;2023-06-04T14:59:01;34.30;48.90
16174;DHT22;14031;50.158;8.626;2023-06-04T15:01:30;34.40;50.60
16174;DHT22;14031;50.158;8.626;2023-06-04T15:03:57;34.70;49.90
16174;DHT22;14031;50.158;8.626;2023-06-04T15:06:24;34.80;50.60
16174;DHT22;14031;50.158;8.626;2023-06-04T15:08:51;35.00;48.20
16174;DHT22;14031;50.158;8.626;2023-06-04T15:11:18;35.10;49.90
16174;DHT22;14031;50.158;8.626;2023-06-04T15:13:45;35.30;48.40
16174;DHT22;14031;50.158;8.626;2023-06-04T15:16:13;35.40;47.50
16174;DHT22;14031;50.158;8.626;2023-06-04T15:18:40;35.30;45.40
16174;DHT22;14031;50.158;8.626;2023-06-04T15:21:07;35.30;46.60
16174;DHT22;14031;50.158;8.626;2023-06-04T15:23:34;35.40;47.20
16174;DHT22;14031;50.158;8.626;2023-06-04T15:26:02;35.50;47.10
16174;DHT22;14031;50.158;8.626;2023-06-04T15:28:29;35.50;46.60
16174;DHT22;14031;50.158;8.626;2023-06-04T15:30:56;35.50;46.50
16174;DHT22;14031;50.158;8.626;2023-06-04T15:33:24;35.70;47.20
16174;DHT22;14031;50.158;8.626;2023-06-04T15:35:50;35.70;44.10